sensor_id;sensor_type;location;lat;lon;timestamp;pressure;altitude;pressure_sealevel;temperature;humidity
73671;BME280;61968;48.178;11.566;2023-07-02T00:02:08;95208.72;;;19.82;40.07
73671;BME280;61968;48.178;11.566;2023-07-02T00:04:34;95211.13;;;19.70;40.50
73671;BME280;61968;48.178;11.566;2023-07-02T00:07:01;95218.19;;;19.66;40.60
73671;BME280;61968;48.178;11.566;2023-07-02T00:09:29;95216.16;;;19.71;40.29
73671;BME280;61968;48.178;11.566;2023-07-02T00:11:56;95216.38;;;19.75;40.15
73671;BME280;61968;48.178;11.566;2023-07-02T00:14:24;95217.00;;;19.72;40.47
73671;BME280;61968;48.178;11.566;2023-07-02T00:16:50;95222.31;;;19.86;39.96
73671;BME280;61968;48.178;11.566;2023-07-02T00:19:17;95217.13;;;19.89;39.89
73671;BME280;61968;48.178;11.566;2023-07-02T00:21:44;95202.13;;;19.88;39.84
73671;BME280;61968;48.178;11.566;2023-07-02T00:24:10;95217.84;;;19.81;39.67
73671;BME280;61968;48.178;11.566;2023-07-02T00:26:38;95214.69;;;19.79;40.00
73671;BME280;61968;48.178;11.566;2023-07-02T00:29:05;95211.88;;;19.84;39.60
73671;BME280;61968;48.178;11.566;2023-07-02T00:31:34;95211.38;;;19.82;39.90
73671;BME280;61968;48.178;11.566;2023-07-02T00:34:01;95210.53;;;19.95;39.59
73671;BME280;61968;48.178;11.566;2023-07-02T00:36:29;95219.53;;;19.77;39.81
73671;BME280;61968;48.178;11.566;2023-07-02T00:38:56;95211.63;;;19.72;39.85
73671;BME280;61968;48.178;11.566;2023-07-02T00:41:23;95201.56;;;19.78;39.80
73671;BME280;61968;48.178;11.566;2023-07-02T00:43:50;95209.03;;;19.67;39.76
73671;BME280;61968;48.178;11.566;2023-07-02T00:46:20;95213.81;;;19.70;40.20
73671;BME280;61968;48.178;11.566;2023-07-02T00:48:49;95216.78;;;19.41;40.58
73671;BME280;61968;48.178;11.566;2023-07-02T00:51:17;95218.38;;;19.42;40.25
73671;BME280;61968;48.178;11.566;2023-07-02T00:53:45;95215.81;;;19.50;40.28
73671;BME280;61968;48.178;11.566;2023-07-02T00:56:12;95219.44;;;19.68;39.93
73671;BME280;61968;48.178;11.566;2023-07-02T00:58:40;95215.81;;;19.50;40.47
73671;BME280;61968;48.178;11.566;2023-07-02T01:01:14;95221.06;;;19.56;40.17
73671;BME280;61968;48.178;11.566;2023-07-02T01:03:53;95214.22;;;19.49;40.51
73671;BME280;61968;48.178;11.566;2023-07-02T01:06:23;95229.50;;;19.35;40.45
73671;BME280;61968;48.178;11.566;2023-07-02T01:08:54;95228.69;;;19.48;40.66
73671;BME280;61968;48.178;11.566;2023-07-02T01:11:23;95226.34;;;19.61;40.51
73671;BME280;61968;48.178;11.566;2023-07-02T01:13:53;95223.34;;;19.62;40.24
73671;BME280;61968;48.178;11.566;2023-07-02T01:16:21;95216.72;;;19.60;40.26
73671;BME280;61968;48.178;11.566;2023-07-02T01:18:50;95223.16;;;19.59;40.53
73671;BME280;61968;48.178;11.566;2023-07-02T01:21:21;95230.31;;;19.49;40.83
73671;BME280;61968;48.178;11.566;2023-07-02T01:23:48;95235.25;;;19.42;40.65
73671;BME280;61968;48.178;11.566;2023-07-02T01:26:15;95239.00;;;19.41;40.77
73671;BME280;61968;48.178;11.566;2023-07-02T01:28:41;95237.03;;;19.19;41.63
73671;BME280;61968;48.178;11.566;2023-07-02T01:31:08;95238.13;;;19.18;41.71
73671;BME280;61968;48.178;11.566;2023-07-02T01:33:35;95229.69;;;19.25;41.68
73671;BME280;61968;48.178;11.566;2023-07-02T01:36:01;95231.88;;;19.09;41.87
73671;BME280;61968;48.178;11.566;2023-07-02T01:38:29;95237.06;;;18.73;42.69
73671;BME280;61968;48.178;11.566;2023-07-02T01:40:56;95236.50;;;18.90;42.35
73671;BME280;61968;48.178;11.566;2023-07-02T01:43:22;95233.47;;;18.96;42.24
73671;BME280;61968;48.178;11.566;2023-07-02T01:45:49;95237.22;;;18.95;42.18
73671;BME280;61968;48.178;11.566;2023-07-02T01:48:15;95244.56;;;19.03;42.48
73671;BME280;61968;48.178;11.566;2023-07-02T01:50:42;95235.88;;;18.79;42.98
73671;BME280;61968;48.178;11.566;2023-07-02T01:53:08;95232.44;;;18.92;42.46
73671;BME280;61968;48.178;11.566;2023-07-02T01:55:36;95232.16;;;18.94;42.49
73671;BME280;61968;48.178;11.566;2023-07-02T01:58:03;95235.72;;;18.89;42.94
73671;BME280;61968;48.178;11.566;2023-07-02T02:00:29;95237.03;;;19.06;42.35
73671;BME280;61968;48.178;11.566;2023-07-02T02:02:56;95238.13;;;19.04;42.33
73671;BME280;61968;48.178;11.566;2023-07-02T02:05:22;95242.59;;;19.09;42.10
73671;BME280;61968;48.178;11.566;2023-07-02T02:07:49;95235.47;;;19.18;41.98
73671;BME280;61968;48.178;11.566;2023-07-02T02:10:15;95243.97;;;19.07;42.13
73671;BME280;61968;48.178;11.566;2023-07-02T02:12:43;95235.84;;;19.12;42.33
73671;BME280;61968;48.178;11.566;2023-07-02T02:15:10;95235.84;;;19.12;42.30
73671;BME280;61968;48.178;11.566;2023-07-02T02:17:39;95237.63;;;19.02;42.27
73671;BME280;61968;48.178;11.566;2023-07-02T02:20:06;95226.09;;;18.88;42.72
73671;BME280;61968;48.178;11.566;2023-07-02T02:22:33;95228.50;;;19.03;42.16
73671;BME280;61968;48.178;11.566;2023-07-02T02:25:00;95225.81;;;19.03;42.42
73671;BME280;61968;48.178;11.566;2023-07-02T02:27:26;95234.72;;;18.99;42.42
73671;BME280;61968;48.178;11.566;2023-07-02T02:29:54;95241.00;;;19.08;41.96
73671;BME280;61968;48.178;11.566;2023-07-02T02:32:20;95243.59;;;18.99;42.13
73671;BME280;61968;48.178;11.566;2023-07-02T02:34:47;95241.06;;;18.89;42.57
73671;BME280;61968;48.178;11.566;2023-07-02T02:37:14;95235.44;;;18.72;43.28
73671;BME280;61968;48.178;11.566;2023-07-02T02:39:40;95243.88;;;18.84;42.63
73671;BME280;61968;48.178;11.566;2023-07-02T02:42:07;95237.13;;;19.00;42.17
73671;BME280;61968;48.178;11.566;2023-07-02T02:44:34;95238.72;;;19.15;41.93
73671;BME280;61968;48.178;11.566;2023-07-02T02:47:02;95230.88;;;19.05;42.14
73671;BME280;61968;48.178;11.566;2023-07-02T02:49:30;95237.81;;;19.20;41.71
73671;BME280;61968;48.178;11.566;2023-07-02T02:51:56;95241.00;;;18.94;42.62
73671;BME280;61968;48.178;11.566;2023-07-02T02:54:23;95236.81;;;19.02;42.07
73671;BME280;61968;48.178;11.566;2023-07-02T02:56:49;95238.91;;;18.91;42.42
73671;BME280;61968;48.178;11.566;2023-07-02T02:59:15;95238.41;;;18.89;42.52
73671;BME280;61968;48.178;11.566;2023-07-02T03:01:42;95242.69;;;19.04;42.07
73671;BME280;61968;48.178;11.566;2023-07-02T03:04:10;95239.81;;;19.00;42.13
73671;BME280;61968;48.178;11.566;2023-07-02T03:06:36;95243.94;;;18.93;42.32
73671;BME280;61968;48.178;11.566;2023-07-02T03:09:03;95250.50;;;18.87;42.72
73671;BME280;61968;48.178;11.566;2023-07-02T03:11:29;95259.66;;;18.99;42.53
73671;BME280;61968;48.178;11.566;2023-07-02T03:13:56;95256.78;;;18.77;42.60
73671;BME280;61968;48.178;11.566;2023-07-02T03:16:22;95267.66;;;18.86;42.69
73671;BME280;61968;48.178;11.566;2023-07-02T03:18:49;95322.78;;;18.35;42.75
73671;BME280;61968;48.178;11.566;2023-07-02T03:21:17;95314.78;;;17.92;44.10
73671;BME280;61968;48.178;11.566;2023-07-02T03:23:44;95325.19;;;18.36;43.04
73671;BME280;61968;48.178;11.566;2023-07-02T03:26:10;95319.22;;;17.78;42.26
73671;BME280;61968;48.178;11.566;2023-07-02T03:28:37;95318.00;;;17.70;44.42
73671;BME280;61968;48.178;11.566;2023-07-02T03:31:03;95322.00;;;17.91;43.50
73671;BME280;61968;48.178;11.566;2023-07-02T03:33:29;95307.06;;;18.09;41.16
73671;BME280;61968;48.178;11.566;2023-07-02T03:35:56;95318.78;;;18.13;42.40
73671;BME280;61968;48.178;11.566;2023-07-02T03:38:24;95315.31;;;18.13;41.48
73671;BME280;61968;48.178;11.566;2023-07-02T03:40:50;95319.88;;;18.31;40.73
73671;BME280;61968;48.178;11.566;2023-07-02T03:43:17;95324.44;;;18.31;40.59
73671;BME280;61968;48.178;11.566;2023-07-02T03:45:43;95333.25;;;18.50;40.50
73671;BME280;61968;48.178;11.566;2023-07-02T03:48:10;95342.97;;;18.46;39.08
73671;BME280;61968;48.178;11.566;2023-07-02T03:50:37;95345.28;;;18.34;40.01
73671;BME280;61968;48.178;11.566;2023-07-02T03:53:03;95343.34;;;18.40;39.77
73671;BME280;61968;48.178;11.566;2023-07-02T03:55:31;95345.19;;;18.58;39.67
73671;BME280;61968;48.178;11.566;2023-07-02T03:57:57;95346.13;;;18.67;39.13
73671;BME280;61968;48.178;11.566;2023-07-02T04:00:24;95350.72;;;18.48;39.73
73671;BME280;61968;48.178;11.566;2023-07-02T04:02:50;95358.97;;;18.51;39.97
73671;BME280;61968;48.178;11.566;2023-07-02T04:05:17;95342.22;;;18.59;39.70
73671;BME280;61968;48.178;11.566;2023-07-02T04:07:43;95351.44;;;18.34;40.00
73671;BME280;61968;48.178;11.566;2023-07-02T04:10:10;95345.13;;;18.44;39.82
73671;BME280;61968;48.178;11.566;2023-07-02T04:12:38;95348.69;;;18.40;40.25
73671;BME280;61968;48.178;11.566;2023-07-02T04:15:05;95350.41;;;18.30;40.50
73671;BME280;61968;48.178;11.566;2023-07-02T04:17:33;95343.19;;;18.31;40.50
73671;BME280;61968;48.178;11.566;2023-07-02T04:20:00;95349.06;;;18.33;40.20
73671;BME280;61968;48.178;11.566;2023-07-02T04:22:28;95346.28;;;18.38;40.18
73671;BME280;61968;48.178;11.566;2023-07-02T04:24:55;95341.72;;;18.39;39.99
73671;BME280;61968;48.178;11.566;2023-07-02T04:27:22;95334.38;;;18.30;40.65
73671;BME280;61968;48.178;11.566;2023-07-02T04:29:49;95348.09;;;18.24;40.69
73671;BME280;61968;48.178;11.566;2023-07-02T04:32:16;95351.34;;;18.21;40.60
73671;BME280;61968;48.178;11.566;2023-07-02T04:34:42;95355.91;;;17.96;41.01
73671;BME280;61968;48.178;11.566;2023-07-02T04:37:09;95357.91;;;17.85;41.37
73671;BME280;61968;48.178;11.566;2023-07-02T04:39:36;95343.56;;;18.00;41.15
73671;BME280;61968;48.178;11.566;2023-07-02T04:42:02;95342.34;;;18.11;40.57
73671;BME280;61968;48.178;11.566;2023-07-02T04:44:29;95344.19;;;17.92;41.17
73671;BME280;61968;48.178;11.566;2023-07-02T04:46:58;95346.22;;;18.00;40.90
73671;BME280;61968;48.178;11.566;2023-07-02T04:49:24;95349.31;;;17.88;41.60
73671;BME280;61968;48.178;11.566;2023-07-02T04:51:51;95348.00;;;17.86;41.03
73671;BME280;61968;48.178;11.566;2023-07-02T04:54:19;95354.50;;;17.80;41.58
73671;BME280;61968;48.178;11.566;2023-07-02T04:56:45;95355.69;;;17.68;41.39
73671;BME280;61968;48.178;11.566;2023-07-02T04:59:12;95366.28;;;17.55;42.37
73671;BME280;61968;48.178;11.566;2023-07-02T05:01:38;95369.88;;;17.45;42.46
73671;BME280;61968;48.178;11.566;2023-07-02T05:04:06;95366.69;;;17.38;42.22
73671;BME280;61968;48.178;11.566;2023-07-02T05:06:32;95381.22;;;17.27;42.90
73671;BME280;61968;48.178;11.566;2023-07-02T05:08:59;95381.69;;;17.34;42.57
73671;BME280;61968;48.178;11.566;2023-07-02T05:11:25;95378.97;;;17.39;42.13
73671;BME280;61968;48.178;11.566;2023-07-02T05:13:52;95374.34;;;17.50;42.13
73671;BME280;61968;48.178;11.566;2023-07-02T05:16:18;95376.91;;;17.31;42.64
73671;BME280;61968;48.178;11.566;2023-07-02T05:18:45;95377.59;;;17.41;42.80
73671;BME280;61968;48.178;11.566;2023-07-02T05:21:17;95366.69;;;17.38;42.44
73671;BME280;61968;48.178;11.566;2023-07-02T05:23:43;95376.91;;;17.31;42.94
73671;BME280;61968;48.178;11.566;2023-07-02T05:26:10;95375.25;;;17.35;42.82
73671;BME280;61968;48.178;11.566;2023-07-02T05:28:37;95376.91;;;17.31;42.75
73671;BME280;61968;48.178;11.566;2023-07-02T05:31:03;95377.59;;;17.41;42.31
73671;BME280;61968;48.178;11.566;2023-07-02T05:33:30;95387.03;;;17.34;42.85
73671;BME280;61968;48.178;11.566;2023-07-02T05:35:58;95382.34;;;17.20;43.16
73671;BME280;61968;48.178;11.566;2023-07-02T05:38:26;95381.91;;;17.37;42.84
73671;BME280;61968;48.178;11.566;2023-07-02T05:40:52;95385.81;;;17.50;42.70
73671;BME280;61968;48.178;11.566;2023-07-02T05:43:19;95379.44;;;17.51;42.21
73671;BME280;61968;48.178;11.566;2023-07-02T05:45:45;95382.31;;;17.55;42.65
73671;BME280;61968;48.178;11.566;2023-07-02T05:48:12;95385.50;;;17.57;42.34
73671;BME280;61968;48.178;11.566;2023-07-02T05:50:38;95388.22;;;17.52;42.51
73671;BME280;61968;48.178;11.566;2023-07-02T05:53:05;95388.28;;;17.47;42.64
73671;BME280;61968;48.178;11.566;2023-07-02T05:55:33;95390.13;;;17.51;42.74
73671;BME280;61968;48.178;11.566;2023-07-02T05:57:59;95386.81;;;17.59;42.71
73671;BME280;61968;48.178;11.566;2023-07-02T06:00:28;95385.19;;;17.63;42.25
73671;BME280;61968;48.178;11.566;2023-07-02T06:02:54;95390.00;;;17.61;42.26
73671;BME280;61968;48.178;11.566;2023-07-02T06:05:21;95390.63;;;17.77;42.10
73671;BME280;61968;48.178;11.566;2023-07-02T06:07:47;95396.31;;;17.71;42.04
73671;BME280;61968;48.178;11.566;2023-07-02T06:10:14;95394.25;;;17.62;41.71
73671;BME280;61968;48.178;11.566;2023-07-02T06:12:42;95393.41;;;17.67;42.00
73671;BME280;61968;48.178;11.566;2023-07-02T06:15:09;95403.06;;;17.87;41.99
73671;BME280;61968;48.178;11.566;2023-07-02T06:17:36;95401.28;;;17.82;42.12
73671;BME280;61968;48.178;11.566;2023-07-02T06:20:03;95413.94;;;17.72;42.32
73671;BME280;61968;48.178;11.566;2023-07-02T06:22:30;95409.13;;;17.74;42.23
73671;BME280;61968;48.178;11.566;2023-07-02T06:24:57;95423.84;;;17.71;42.18
73671;BME280;61968;48.178;11.566;2023-07-02T06:27:23;95424.06;;;17.75;42.09
73671;BME280;61968;48.178;11.566;2023-07-02T06:29:51;95430.91;;;17.86;41.81
73671;BME280;61968;48.178;11.566;2023-07-02T06:32:18;95430.56;;;17.92;41.61
73671;BME280;61968;48.178;11.566;2023-07-02T06:34:44;95430.31;;;17.94;41.58
73671;BME280;61968;48.178;11.566;2023-07-02T06:37:11;95432.06;;;18.04;41.57
73671;BME280;61968;48.178;11.566;2023-07-02T06:39:38;95428.06;;;18.01;42.00
73671;BME280;61968;48.178;11.566;2023-07-02T06:42:04;95427.50;;;18.04;41.68
73671;BME280;61968;48.178;11.566;2023-07-02T06:44:31;95426.94;;;18.07;41.95
73671;BME280;61968;48.178;11.566;2023-07-02T06:46:59;95424.41;;;18.21;41.67
73671;BME280;61968;48.178;11.566;2023-07-02T06:49:25;95424.88;;;17.99;41.66
73671;BME280;61968;48.178;11.566;2023-07-02T06:51:52;95429.81;;;17.87;41.97
73671;BME280;61968;48.178;11.566;2023-07-02T06:54:18;95431.53;;;17.78;42.15
73671;BME280;61968;48.178;11.566;2023-07-02T06:56:47;95432.56;;;17.82;42.50
73671;BME280;61968;48.178;11.566;2023-07-02T06:59:18;95438.53;;;17.98;42.04
73671;BME280;61968;48.178;11.566;2023-07-02T07:01:45;95447.97;;;17.90;42.32
73671;BME280;61968;48.178;11.566;2023-07-02T07:04:13;95439.63;;;17.97;42.53
73671;BME280;61968;48.178;11.566;2023-07-02T07:06:39;95447.97;;;17.90;42.21
73671;BME280;61968;48.178;11.566;2023-07-02T07:09:05;95452.50;;;17.95;42.42
73671;BME280;61968;48.178;11.566;2023-07-02T07:11:32;95451.97;;;17.92;42.58
73671;BME280;61968;48.178;11.566;2023-07-02T07:13:58;95447.53;;;17.83;42.46
73671;BME280;61968;48.178;11.566;2023-07-02T07:16:25;95459.66;;;17.99;42.38
73671;BME280;61968;48.178;11.566;2023-07-02T07:18:51;95458.59;;;18.00;42.44
73671;BME280;61968;48.178;11.566;2023-07-02T07:21:19;95463.06;;;17.81;42.06
73671;BME280;61968;48.178;11.566;2023-07-02T07:23:46;95468.41;;;17.81;42.77
73671;BME280;61968;48.178;11.566;2023-07-02T07:26:12;95465.38;;;17.63;43.04
73671;BME280;61968;48.178;11.566;2023-07-02T07:28:38;95458.16;;;17.64;43.30
73671;BME280;61968;48.178;11.566;2023-07-02T07:31:05;95468.28;;;17.67;42.82
73671;BME280;61968;48.178;11.566;2023-07-02T07:33:32;95454.81;;;17.77;42.98
73671;BME280;61968;48.178;11.566;2023-07-02T07:35:58;95458.56;;;17.76;43.02
73671;BME280;61968;48.178;11.566;2023-07-02T07:38:26;95463.16;;;17.71;42.57
73671;BME280;61968;48.178;11.566;2023-07-02T07:40:53;95462.59;;;17.74;42.87
73671;BME280;61968;48.178;11.566;2023-07-02T07:43:19;95469.31;;;17.42;43.38
73671;BME280;61968;48.178;11.566;2023-07-02T07:45:46;95469.13;;;17.23;43.82
73671;BME280;61968;48.178;11.566;2023-07-02T07:48:12;95470.63;;;17.39;43.63
73671;BME280;61968;48.178;11.566;2023-07-02T07:50:39;95476.25;;;17.43;43.39
73671;BME280;61968;48.178;11.566;2023-07-02T07:53:05;95476.78;;;17.40;43.53
73671;BME280;61968;48.178;11.566;2023-07-02T07:55:33;95478.03;;;17.53;43.30
73671;BME280;61968;48.178;11.566;2023-07-02T07:58:00;95474.25;;;17.54;43.38
73671;BME280;61968;48.178;11.566;2023-07-02T08:00:26;95476.47;;;17.47;43.67
73671;BME280;61968;48.178;11.566;2023-07-02T08:02:53;95468.13;;;17.53;43.79
73671;BME280;61968;48.178;11.566;2023-07-02T08:05:20;95466.72;;;17.61;43.98
73671;BME280;61968;48.178;11.566;2023-07-02T08:07:47;95472.47;;;17.78;43.15
73671;BME280;61968;48.178;11.566;2023-07-02T08:10:14;95469.38;;;17.90;43.04
73671;BME280;61968;48.178;11.566;2023-07-02T08:12:41;95466.09;;;17.98;43.32
73671;BME280;61968;48.178;11.566;2023-07-02T08:15:08;95472.94;;;17.80;43.63
73671;BME280;61968;48.178;11.566;2023-07-02T08:17:34;95476.91;;;17.88;43.56
73671;BME280;61968;48.178;11.566;2023-07-02T08:20:01;95481.38;;;17.92;43.52
73671;BME280;61968;48.178;11.566;2023-07-02T08:22:29;95488.28;;;17.99;43.51
73671;BME280;61968;48.178;11.566;2023-07-02T08:24:56;95484.78;;;18.03;43.81
73671;BME280;61968;48.178;11.566;2023-07-02T08:27:22;95489.22;;;18.13;43.23
73671;BME280;61968;48.178;11.566;2023-07-02T08:29:50;95491.47;;;18.01;44.10
73671;BME280;61968;48.178;11.566;2023-07-02T08:32:17;95489.22;;;18.13;43.53
73671;BME280;61968;48.178;11.566;2023-07-02T08:34:43;95493.44;;;18.19;43.71
73671;BME280;61968;48.178;11.566;2023-07-02T08:37:10;95498.06;;;18.13;43.62
73671;BME280;61968;48.178;11.566;2023-07-02T08:39:37;95497.84;;;18.05;43.76
73671;BME280;61968;48.178;11.566;2023-07-02T08:42:05;95489.06;;;17.99;43.93
73671;BME280;61968;48.178;11.566;2023-07-02T08:44:32;95498.59;;;18.10;43.94
73671;BME280;61968;48.178;11.566;2023-07-02T08:47:00;95498.16;;;17.74;44.09
73671;BME280;61968;48.178;11.566;2023-07-02T08:49:27;95496.63;;;17.92;44.79
73671;BME280;61968;48.178;11.566;2023-07-02T08:51:54;95502.41;;;18.04;44.16
73671;BME280;61968;48.178;11.566;2023-07-02T08:54:20;95501.38;;;18.00;43.69
73671;BME280;61968;48.178;11.566;2023-07-02T08:56:47;95505.78;;;17.86;44.17
73671;BME280;61968;48.178;11.566;2023-07-02T08:59:13;95502.63;;;18.08;44.13
73671;BME280;61968;48.178;11.566;2023-07-02T09:01:46;95516.13;;;18.27;43.82
73671;BME280;61968;48.178;11.566;2023-07-02T09:04:19;95509.63;;;18.33;43.35
73671;BME280;61968;48.178;11.566;2023-07-02T09:06:46;95516.53;;;18.39;43.04
73671;BME280;61968;48.178;11.566;2023-07-02T09:09:13;95520.78;;;18.40;43.07
73671;BME280;61968;48.178;11.566;2023-07-02T09:11:49;95518.69;;;18.37;43.04
73671;BME280;61968;48.178;11.566;2023-07-02T09:14:26;95507.66;;;18.39;43.51
73671;BME280;61968;48.178;11.566;2023-07-02T09:17:04;95512.13;;;18.24;43.40
73671;BME280;61968;48.178;11.566;2023-07-02T09:19:33;95511.75;;;18.36;43.11
73671;BME280;61968;48.178;11.566;2023-07-02T09:21:59;95508.41;;;18.44;43.58
73671;BME280;61968;48.178;11.566;2023-07-02T09:24:27;95517.25;;;18.45;43.63
73671;BME280;61968;48.178;11.566;2023-07-02T09:26:56;95517.47;;;18.48;43.52
73671;BME280;61968;48.178;11.566;2023-07-02T09:29:25;95512.19;;;18.43;43.22
73671;BME280;61968;48.178;11.566;2023-07-02T09:31:54;95517.94;;;18.31;43.73
73671;BME280;61968;48.178;11.566;2023-07-02T09:34:26;95520.38;;;18.28;43.66
73671;BME280;61968;48.178;11.566;2023-07-02T09:36:55;95519.47;;;18.38;43.54
73671;BME280;61968;48.178;11.566;2023-07-02T09:39:26;95527.97;;;18.21;44.36
73671;BME280;61968;48.178;11.566;2023-07-02T09:41:54;95522.66;;;18.10;44.41
73671;BME280;61968;48.178;11.566;2023-07-02T09:44:21;95520.78;;;18.16;43.96
73671;BME280;61968;48.178;11.566;2023-07-02T09:46:53;95521.16;;;17.99;44.55
73671;BME280;61968;48.178;11.566;2023-07-02T09:49:22;95513.66;;;18.30;44.01
73671;BME280;61968;48.178;11.566;2023-07-02T09:51:50;95518.22;;;18.30;44.13
73671;BME280;61968;48.178;11.566;2023-07-02T09:54:18;95519.50;;;18.32;43.69
73671;BME280;61968;48.178;11.566;2023-07-02T09:56:46;95516.41;;;18.25;43.97
73671;BME280;61968;48.178;11.566;2023-07-02T09:59:13;95520.91;;;18.30;43.64
73671;BME280;61968;48.178;11.566;2023-07-02T10:01:39;95516.63;;;18.29;43.34
73671;BME280;61968;48.178;11.566;2023-07-02T10:04:13;95513.50;;;18.22;43.75
73671;BME280;61968;48.178;11.566;2023-07-02T10:06:47;95523.97;;;18.18;43.50
73671;BME280;61968;48.178;11.566;2023-07-02T10:09:13;95522.63;;;18.21;43.44
73671;BME280;61968;48.178;11.566;2023-07-02T10:11:41;95519.38;;;18.24;43.59
73671;BME280;61968;48.178;11.566;2023-07-02T10:14:08;95519.25;;;18.34;43.12
73671;BME280;61968;48.178;11.566;2023-07-02T10:16:48;95515.38;;;18.21;43.70
73671;BME280;61968;48.178;11.566;2023-07-02T10:19:15;95512.00;;;18.34;43.69
73671;BME280;61968;48.178;11.566;2023-07-02T10:21:41;95508.72;;;18.19;42.99
73671;BME280;61968;48.178;11.566;2023-07-02T10:24:12;95508.53;;;18.05;44.21
73671;BME280;61968;48.178;11.566;2023-07-02T10:26:51;95512.00;;;18.34;43.76
73671;BME280;61968;48.178;11.566;2023-07-02T10:29:18;95521.69;;;18.54;43.16
73671;BME280;61968;48.178;11.566;2023-07-02T10:31:48;95512.78;;;18.83;42.80
73671;BME280;61968;48.178;11.566;2023-07-02T10:34:14;95510.41;;;18.81;42.61
73671;BME280;61968;48.178;11.566;2023-07-02T10:36:41;95493.81;;;18.98;42.66
73671;BME280;61968;48.178;11.566;2023-07-02T10:39:07;95492.66;;;19.04;42.30
73671;BME280;61968;48.178;11.566;2023-07-02T10:41:34;95507.72;;;19.00;41.58
73671;BME280;61968;48.178;11.566;2023-07-02T10:44:09;95503.53;;;18.94;41.98
73671;BME280;61968;48.178;11.566;2023-07-02T10:46:43;95493.31;;;18.96;41.42
73671;BME280;61968;48.178;11.566;2023-07-02T10:49:09;95507.53;;;18.73;41.00
73671;BME280;61968;48.178;11.566;2023-07-02T10:51:37;95508.19;;;18.41;42.50
73671;BME280;61968;48.178;11.566;2023-07-02T10:54:03;95489.09;;;18.47;42.73
73671;BME280;61968;48.178;11.566;2023-07-02T10:56:31;95494.19;;;18.25;43.02
73671;BME280;61968;48.178;11.566;2023-07-02T10:58:58;95496.63;;;18.45;42.30
73671;BME280;61968;48.178;11.566;2023-07-02T11:01:27;95489.09;;;18.47;42.19
73671;BME280;61968;48.178;11.566;2023-07-02T11:03:58;95500.34;;;18.25;42.74
73671;BME280;61968;48.178;11.566;2023-07-02T11:06:25;95499.06;;;18.42;43.07
73671;BME280;61968;48.178;11.566;2023-07-02T11:08:52;95494.56;;;18.61;42.60
73671;BME280;61968;48.178;11.566;2023-07-02T11:11:20;95492.03;;;18.70;42.23
73671;BME280;61968;48.178;11.566;2023-07-02T11:13:48;95487.13;;;18.77;41.76
73671;BME280;61968;48.178;11.566;2023-07-02T11:16:23;95493.06;;;18.74;41.14
73671;BME280;61968;48.178;11.566;2023-07-02T11:18:53;95485.22;;;18.58;41.99
73671;BME280;61968;48.178;11.566;2023-07-02T11:21:20;95482.91;;;18.71;42.10
73671;BME280;61968;48.178;11.566;2023-07-02T11:23:46;95484.84;;;18.46;42.19
73671;BME280;61968;48.178;11.566;2023-07-02T11:26:13;95482.19;;;18.65;41.86
73671;BME280;61968;48.178;11.566;2023-07-02T11:28:48;95472.41;;;18.74;41.64
73671;BME280;61968;48.178;11.566;2023-07-02T11:31:24;95476.63;;;18.80;41.97
73671;BME280;61968;48.178;11.566;2023-07-02T11:33:50;95476.31;;;18.87;41.61
73671;BME280;61968;48.178;11.566;2023-07-02T11:36:21;95473.63;;;18.87;40.88
73671;BME280;61968;48.178;11.566;2023-07-02T11:38:49;95476.25;;;18.68;41.20
73671;BME280;61968;48.178;11.566;2023-07-02T11:41:16;95483.44;;;18.73;41.17
73671;BME280;61968;48.178;11.566;2023-07-02T11:43:43;95479.91;;;18.53;41.98
73671;BME280;61968;48.178;11.566;2023-07-02T11:46:09;95479.88;;;18.58;42.24
73671;BME280;61968;48.178;11.566;2023-07-02T11:48:36;95470.31;;;18.52;41.43
73671;BME280;61968;48.178;11.566;2023-07-02T11:51:03;95461.78;;;18.69;42.03
73671;BME280;61968;48.178;11.566;2023-07-02T11:53:31;95460.97;;;18.69;41.26
73671;BME280;61968;48.178;11.566;2023-07-02T11:55:57;95449.03;;;18.80;41.15
73671;BME280;61968;48.178;11.566;2023-07-02T11:58:24;95449.34;;;18.78;40.96
73671;BME280;61968;48.178;11.566;2023-07-02T12:00:51;95453.47;;;18.90;41.15
73671;BME280;61968;48.178;11.566;2023-07-02T12:03:18;95451.59;;;19.09;40.56
73671;BME280;61968;48.178;11.566;2023-07-02T12:05:44;95452.47;;;19.23;40.28
73671;BME280;61968;48.178;11.566;2023-07-02T12:08:11;95447.34;;;19.41;40.65
73671;BME280;61968;48.178;11.566;2023-07-02T12:10:40;95433.50;;;19.53;39.51
73671;BME280;61968;48.178;11.566;2023-07-02T12:13:06;95442.16;;;19.31;39.96
73671;BME280;61968;48.178;11.566;2023-07-02T12:15:33;95439.50;;;19.44;39.39
73671;BME280;61968;48.178;11.566;2023-07-02T12:17:59;95440.66;;;19.38;39.92
73671;BME280;61968;48.178;11.566;2023-07-02T12:20:26;95441.31;;;19.16;39.91
73671;BME280;61968;48.178;11.566;2023-07-02T12:22:52;95430.44;;;19.08;40.45
73671;BME280;61968;48.178;11.566;2023-07-02T12:25:19;95427.97;;;19.11;40.83
73671;BME280;61968;48.178;11.566;2023-07-02T12:27:47;95426.66;;;19.27;39.76
73671;BME280;61968;48.178;11.566;2023-07-02T12:30:13;95432.84;;;19.42;39.63
73671;BME280;61968;48.178;11.566;2023-07-02T12:32:42;95431.44;;;19.44;39.95
73671;BME280;61968;48.178;11.566;2023-07-02T12:35:09;95433.13;;;19.73;40.45
73671;BME280;61968;48.178;11.566;2023-07-02T12:37:42;95415.25;;;19.82;40.07
73671;BME280;61968;48.178;11.566;2023-07-02T12:40:10;95430.09;;;19.93;39.76
73671;BME280;61968;48.178;11.566;2023-07-02T12:42:37;95421.91;;;19.99;38.73
73671;BME280;61968;48.178;11.566;2023-07-02T12:45:07;95419.84;;;20.09;38.47
73671;BME280;61968;48.178;11.566;2023-07-02T12:47:34;95418.78;;;20.24;38.78
73671;BME280;61968;48.178;11.566;2023-07-02T12:50:01;95418.88;;;20.19;38.52
73671;BME280;61968;48.178;11.566;2023-07-02T12:52:28;95417.84;;;20.29;37.94